Time;durP1;ratioP1;P1;durP2;ratioP2;P2;SDS_P1;SDS_P2;PMS_P1;PMS_P2;Temp;Humidity;BMP_temperature;BMP_pressure;BME280_temperature;BME280_humidity;BME280_pressure;Samples;Min_cycle;Max_cycle;Signal;HPM_P1;HPM_P2
2022/06/19 00:02:40;;;;;;;;;;;12.70;99.90;;;;;;4972058;28;19930;-85
2022/06/19 00:05:12;;;;;;;;;;;12.60;99.90;;;;;;4989762;28;19937;-83
2022/06/19 00:07:42;;;;;;;;;;;12.50;99.90;;;;;;4963058;28;19934;-83
2022/06/19 00:10:10;;;;;;;;;;;12.50;99.90;;;;;;4965295;28;19927;-83
2022/06/19 00:12:38;;;;;;;;;;;12.60;99.90;;;;;;4950090;29;19926;-82
2022/06/19 00:15:07;;;;;;;;;;;12.40;99.90;;;;;;4981092;28;19926;-83
2022/06/19 00:17:35;;;;;;;;;;;12.40;99.90;;;;;;4986709;28;19937;-83
2022/06/19 00:20:04;;;;;;;;;;;12.90;99.90;;;;;;4949304;29;19926;-84
2022/06/19 00:22:32;;;;;;;;;;;12.40;99.90;;;;;;4965140;28;19926;-84
2022/06/19 00:25:00;;;;;;;;;;;12.20;99.90;;;;;;4967734;28;20360;-84
2022/06/19 00:27:28;;;;;;;;;;;12.20;99.90;;;;;;4948165;29;19933;-83
2022/06/19 00:29:57;;;;;;;;;;;12.20;99.90;;;;;;4963392;28;19934;-84
2022/06/19 00:32:27;;;;;;;;;;;12.10;99.90;;;;;;4981922;28;19950;-84
2022/06/19 00:34:55;;;;;;;;;;;12.00;99.90;;;;;;4952698;28;19941;-84
2022/06/19 00:37:24;;;;;;;;;;;12.10;99.90;;;;;;4969111;28;19937;-83
2022/06/19 00:39:53;;;;;;;;;;;11.90;99.90;;;;;;4981448;28;19937;-83
2022/06/19 00:42:24;;;;;;;;;;;11.90;99.90;;;;;;5011183;28;20330;-84
2022/06/19 00:44:53;;;;;;;;;;;12.40;99.90;;;;;;4965420;28;19927;-85
2022/06/19 00:47:24;;;;;;;;;;;11.90;99.90;;;;;;4965433;28;19930;-83
2022/06/19 00:50:20;;;;;;;;;;;11.80;99.90;;;;;;4999911;28;19936;-84
2022/06/19 00:52:48;;;;;;;;;;;11.80;99.90;;;;;;4976600;28;19930;-85
2022/06/19 00:55:19;;;;;;;;;;;11.80;99.90;;;;;;4985601;28;19926;-83
2022/06/19 00:57:54;;;;;;;;;;;10.70;99.90;;;;;;4955674;29;19927;-84
2022/06/19 01:00:28;;;;;;;;;;;11.40;99.90;;;;;;4966441;29;19931;-83
2022/06/19 01:03:04;;;;;;;;;;;11.60;99.90;;;;;;4965251;28;19926;-83
2022/06/19 01:05:34;;;;;;;;;;;11.60;99.90;;;;;;4970455;28;19935;-83
2022/06/19 01:08:04;;;;;;;;;;;11.70;99.90;;;;;;4996284;28;19933;-83
2022/06/19 01:10:36;;;;;;;;;;;11.70;99.90;;;;;;4948865;29;19933;-83
2022/06/19 01:13:05;;;;;;;;;;;12.40;99.90;;;;;;4997456;28;19931;-84
2022/06/19 01:15:36;;;;;;;;;;;11.70;99.90;;;;;;4948543;28;20159;-83
2022/06/19 01:18:07;;;;;;;;;;;12.00;99.90;;;;;;4976933;28;19931;-84
2022/06/19 01:20:36;;;;;;;;;;;11.60;99.90;;;;;;4959516;29;19941;-83
2022/06/19 01:23:04;;;;;;;;;;;11.90;99.90;;;;;;4981790;28;19933;-84
2022/06/19 01:25:35;;;;;;;;;;;9.80;99.90;;;;;;4981945;28;19926;-84
2022/06/19 01:31:16;;;;;;;;;;;11.60;99.90;;;;;;4971630;28;19931;-83
2022/06/19 01:33:46;;;;;;;;;;;11.60;99.90;;;;;;4961998;28;20735;-84
2022/06/19 01:36:16;;;;;;;;;;;11.60;99.90;;;;;;4963364;29;19926;-84
2022/06/19 01:38:48;;;;;;;;;;;11.60;99.90;;;;;;4996868;28;19926;-84
2022/06/19 01:41:25;;;;;;;;;;;11.60;99.90;;;;;;4938963;29;19930;-84
2022/06/19 01:43:53;;;;;;;;;;;11.60;99.90;;;;;;4965496;28;19930;-83
2022/06/19 01:46:23;;;;;;;;;;;11.60;99.90;;;;;;5000290;28;19929;-85
2022/06/19 01:48:52;;;;;;;;;;;11.70;99.90;;;;;;5002148;28;19926;-83
2022/06/19 01:51:20;;;;;;;;;;;11.60;99.90;;;;;;4982212;28;19926;-83
2022/06/19 01:53:51;;;;;;;;;;;11.60;99.90;;;;;;4966127;28;19926;-84
2022/06/19 01:56:22;;;;;;;;;;;11.60;99.90;;;;;;4951024;29;20296;-83
2022/06/19 01:58:52;;;;;;;;;;;11.50;99.90;;;;;;4967321;29;19937;-83
2022/06/19 02:01:20;;;;;;;;;;;11.90;99.90;;;;;;4966269;29;19926;-83
2022/06/19 02:03:52;;;;;;;;;;;11.60;99.90;;;;;;4973330;28;19930;-84
2022/06/19 02:06:37;;;;;;;;;;;11.60;99.90;;;;;;4975681;28;19937;-83
2022/06/19 02:09:06;;;;;;;;;;;11.50;99.90;;;;;;4965436;28;19932;-83
2022/06/19 02:11:34;;;;;;;;;;;11.60;99.90;;;;;;4940308;29;19930;-83
2022/06/19 02:14:09;;;;;;;;;;;11.50;99.90;;;;;;4965337;29;19933;-83
2022/06/19 02:16:42;;;;;;;;;;;11.40;99.90;;;;;;4965939;28;19926;-83
2022/06/19 02:19:11;;;;;;;;;;;11.50;99.90;;;;;;4993674;28;19998;-83
2022/06/19 02:21:41;;;;;;;;;;;11.40;99.90;;;;;;4991706;28;19945;-83
2022/06/19 02:24:10;;;;;;;;;;;11.50;99.90;;;;;;4970564;28;19934;-84
2022/06/19 02:26:39;;;;;;;;;;;11.90;99.90;;;;;;4985249;28;19933;-84
2022/06/19 02:29:09;;;;;;;;;;;11.50;99.90;;;;;;4969601;28;19927;-83
2022/06/19 02:31:40;;;;;;;;;;;11.60;99.90;;;;;;4969846;29;19942;-82
2022/06/19 02:34:20;;;;;;;;;;;11.70;99.90;;;;;;4988097;28;19941;-83
2022/06/19 02:36:51;;;;;;;;;;;11.40;99.90;;;;;;4952879;29;19933;-83
2022/06/19 02:39:28;;;;;;;;;;;11.40;99.90;;;;;;5008880;28;19926;-83
2022/06/19 02:42:05;;;;;;;;;;;11.50;99.90;;;;;;5000832;28;19930;-83
2022/06/19 02:44:36;;;;;;;;;;;11.40;99.90;;;;;;4969469;29;19931;-84
2022/06/19 02:47:05;;;;;;;;;;;11.40;99.90;;;;;;4969204;28;19926;-83
2022/06/19 02:49:36;;;;;;;;;;;11.40;99.90;;;;;;4970183;28;19933;-83
2022/06/19 02:52:05;;;;;;;;;;;11.40;99.90;;;;;;4984856;28;19927;-84
2022/06/19 02:54:40;;;;;;;;;;;11.40;99.90;;;;;;4979888;28;19937;-83
2022/06/19 02:57:11;;;;;;;;;;;11.50;99.90;;;;;;4969989;29;19932;-82
2022/06/19 02:59:41;;;;;;;;;;;11.50;99.90;;;;;;4967482;29;19936;-82
2022/06/19 03:02:12;;;;;;;;;;;11.50;99.90;;;;;;4983874;28;19938;-83
2022/06/19 03:04:48;;;;;;;;;;;11.60;99.90;;;;;;4991386;28;19931;-83
2022/06/19 03:07:17;;;;;;;;;;;11.50;99.90;;;;;;4943521;29;19927;-83
2022/06/19 03:09:46;;;;;;;;;;;13.70;99.90;;;;;;4950300;29;19933;-82
2022/06/19 03:12:14;;;;;;;;;;;11.60;99.90;;;;;;4985032;28;19933;-82
2022/06/19 03:14:44;;;;;;;;;;;11.60;99.90;;;;;;4964918;28;19941;-83
2022/06/19 03:17:15;;;;;;;;;;;11.60;99.90;;;;;;4949039;29;19941;-82
2022/06/19 03:19:44;;;;;;;;;;;11.60;99.90;;;;;;4951494;29;20544;-82
2022/06/19 03:22:13;;;;;;;;;;;11.80;99.90;;;;;;4946776;29;19927;-83
2022/06/19 03:24:44;;;;;;;;;;;11.90;99.90;;;;;;4948287;29;19927;-82
2022/06/19 03:27:15;;;;;;;;;;;11.70;99.90;;;;;;4979003;28;19931;-82
2022/06/19 03:29:46;;;;;;;;;;;11.70;99.90;;;;;;4948374;29;20427;-82
2022/06/19 03:32:14;;;;;;;;;;;11.80;99.90;;;;;;4951590;29;19931;-84
2022/06/19 03:34:45;;;;;;;;;;;10.30;99.90;;;;;;4950137;29;20332;-84
2022/06/19 03:37:16;;;;;;;;;;;11.70;99.90;;;;;;4945972;29;19927;-82
2022/06/19 03:39:46;;;;;;;;;;;11.40;99.90;;;;;;4931205;29;19934;-83
2022/06/19 03:42:14;;;;;;;;;;;11.80;99.90;;;;;;4957349;29;19927;-84
2022/06/19 03:44:42;;;;;;;;;;;11.90;99.90;;;;;;4978251;28;19938;-84
2022/06/19 03:47:15;;;;;;;;;;;11.80;99.90;;;;;;4965648;28;19935;-83
2022/06/19 03:49:44;;;;;;;;;;;11.80;99.90;;;;;;4949265;29;19937;-84
2022/06/19 03:52:12;;;;;;;;;;;10.10;99.90;;;;;;4961272;28;19927;-82
2022/06/19 03:54:41;;;;;;;;;;;11.80;99.90;;;;;;4947875;29;20285;-83
2022/06/19 03:57:12;;;;;;;;;;;11.90;99.90;;;;;;4948713;29;19926;-83
2022/06/19 03:59:40;;;;;;;;;;;11.80;99.90;;;;;;4947020;29;20377;-82
2022/06/19 04:02:09;;;;;;;;;;;11.80;99.90;;;;;;4948384;29;20423;-82
2022/06/19 04:04:42;;;;;;;;;;;11.70;99.90;;;;;;4946745;29;19938;-83
2022/06/19 04:07:11;;;;;;;;;;;11.80;99.90;;;;;;4972415;28;19944;-83
2022/06/19 04:09:39;;;;;;;;;;;12.00;99.90;;;;;;4973477;28;20505;-83
2022/06/19 04:12:09;;;;;;;;;;;11.80;99.90;;;;;;4989254;28;19926;-84
2022/06/19 04:14:37;;;;;;;;;;;11.80;99.90;;;;;;5003648;28;19933;-82
2022/06/19 04:17:07;;;;;;;;;;;11.90;99.90;;;;;;4971461;28;19936;-82
2022/06/19 04:19:36;;;;;;;;;;;12.90;99.90;;;;;;4980534;28;19930;-82
2022/06/19 04:22:04;;;;;;;;;;;11.90;99.90;;;;;;4988619;28;20847;-84
2022/06/19 04:24:32;;;;;;;;;;;11.90;99.90;;;;;;4970606;28;19938;-82
2022/06/19 04:27:05;;;;;;;;;;;11.90;99.90;;;;;;4986530;28;19941;-83
2022/06/19 04:29:33;;;;;;;;;;;11.80;99.90;;;;;;5001520;28;19930;-85
2022/06/19 04:32:03;;;;;;;;;;;11.90;99.90;;;;;;4985180;28;19926;-83
2022/06/19 04:34:31;;;;;;;;;;;11.90;99.90;;;;;;4988866;28;19934;-83
2022/06/19 04:37:00;;;;;;;;;;;11.50;99.90;;;;;;4968711;28;19934;-84
2022/06/19 04:39:28;;;;;;;;;;;11.90;99.90;;;;;;4984448;28;19937;-83
2022/06/19 04:41:57;;;;;;;;;;;12.10;99.90;;;;;;4978378;28;19936;-83
2022/06/19 04:44:28;;;;;;;;;;;12.30;99.90;;;;;;5001326;28;19933;-84
2022/06/19 04:46:56;;;;;;;;;;;12.00;99.90;;;;;;4970564;28;19926;-82
2022/06/19 04:49:25;;;;;;;;;;;12.00;99.90;;;;;;4969290;28;19926;-81
2022/06/19 04:51:53;;;;;;;;;;;11.20;99.90;;;;;;4985131;28;19926;-83
2022/06/19 04:54:22;;;;;;;;;;;12.30;99.90;;;;;;4982261;28;19964;-82
2022/06/19 04:56:50;;;;;;;;;;;12.10;99.90;;;;;;4999336;28;19965;-83
2022/06/19 04:59:18;;;;;;;;;;;12.00;99.90;;;;;;5000131;28;19926;-84
2022/06/19 05:01:47;;;;;;;;;;;12.00;99.90;;;;;;4976178;28;19933;-83
2022/06/19 05:04:15;;;;;;;;;;;13.50;99.90;;;;;;4974518;28;19926;-84
2022/06/19 05:06:44;;;;;;;;;;;12.00;99.90;;;;;;4964773;28;20419;-83
2022/06/19 05:09:12;;;;;;;;;;;12.10;99.90;;;;;;4965699;28;19930;-83
2022/06/19 05:11:41;;;;;;;;;;;12.00;99.90;;;;;;4985973;28;19938;-81
2022/06/19 05:14:11;;;;;;;;;;;12.00;99.90;;;;;;4964822;29;19941;-83
2022/06/19 05:16:39;;;;;;;;;;;13.10;99.90;;;;;;4951015;29;19931;-83
2022/06/19 05:19:10;;;;;;;;;;;12.10;99.90;;;;;;4973589;28;19937;-83
2022/06/19 05:21:38;;;;;;;;;;;12.30;99.90;;;;;;4966879;28;19937;-83
2022/06/19 05:24:08;;;;;;;;;;;10.30;99.90;;;;;;4964205;28;20006;-83
2022/06/19 05:26:36;;;;;;;;;;;12.20;99.90;;;;;;4997056;28;19941;-84
2022/06/19 05:29:05;;;;;;;;;;;12.20;99.90;;;;;;4980744;28;19930;-83
2022/06/19 05:31:34;;;;;;;;;;;12.30;99.90;;;;;;4975566;28;20288;-82
2022/06/19 05:34:02;;;;;;;;;;;12.80;99.90;;;;;;4966092;28;19941;-84
2022/06/19 05:36:38;;;;;;;;;;;12.50;99.90;;;;;;4964763;29;19933;-82
2022/06/19 05:39:08;;;;;;;;;;;12.20;99.90;;;;;;4963150;28;19930;-83
2022/06/19 05:41:40;;;;;;;;;;;12.30;99.90;;;;;;5005235;28;19940;-83
2022/06/19 05:44:10;;;;;;;;;;;13.80;99.90;;;;;;4979362;28;19933;-83
2022/06/19 05:46:38;;;;;;;;;;;12.40;99.90;;;;;;4963398;29;19926;-83
2022/06/19 05:49:06;;;;;;;;;;;12.40;99.90;;;;;;4981728;28;19934;-83
2022/06/19 05:51:33;;;;;;;;;;;12.40;99.90;;;;;;4965388;28;19931;-84
2022/06/19 05:54:03;;;;;;;;;;;12.70;99.90;;;;;;4997504;28;19926;-83
2022/06/19 05:56:30;;;;;;;;;;;14.50;99.90;;;;;;4966962;29;19930;-83
2022/06/19 05:59:01;;;;;;;;;;;12.80;99.90;;;;;;4982370;28;20031;-83
2022/06/19 06:01:30;;;;;;;;;;;12.80;99.90;;;;;;4952307;29;19930;-82
2022/06/19 06:03:59;;;;;;;;;;;12.90;99.90;;;;;;4967512;28;19934;-83
2022/06/19 06:06:30;;;;;;;;;;;12.90;99.90;;;;;;4976404;28;19930;-83
2022/06/19 06:08:59;;;;;;;;;;;11.90;99.90;;;;;;4957028;28;19937;-83
2022/06/19 06:11:28;;;;;;;;;;;13.00;99.90;;;;;;4972174;28;19926;-83
2022/06/19 06:13:59;;;;;;;;;;;13.10;99.90;;;;;;4987120;28;19951;-83
2022/06/19 06:16:28;;;;;;;;;;;13.10;99.90;;;;;;4979497;28;19926;-83
2022/06/19 06:18:56;;;;;;;;;;;13.10;99.90;;;;;;4987620;28;19926;-83
2022/06/19 06:21:25;;;;;;;;;;;13.20;99.90;;;;;;4970372;28;19957;-83
2022/06/19 06:23:53;;;;;;;;;;;13.20;99.90;;;;;;4974016;28;19933;-83
2022/06/19 06:26:23;;;;;;;;;;;13.20;99.90;;;;;;4976485;28;19937;-83
2022/06/19 06:28:52;;;;;;;;;;;13.30;99.90;;;;;;4975214;28;19937;-83
2022/06/19 06:31:22;;;;;;;;;;;13.40;99.90;;;;;;5002566;28;19927;-83
2022/06/19 06:33:56;;;;;;;;;;;14.20;99.90;;;;;;5005454;28;19932;-83
2022/06/19 06:36:28;;;;;;;;;;;13.40;99.90;;;;;;4954774;28;19926;-83
2022/06/19 06:38:57;;;;;;;;;;;13.40;99.90;;;;;;4987385;28;19930;-83
2022/06/19 06:41:26;;;;;;;;;;;12.60;99.90;;;;;;4969751;28;19930;-83
2022/06/19 06:43:54;;;;;;;;;;;11.70;99.60;;;;;;4970329;28;20288;-83
2022/06/19 06:46:24;;;;;;;;;;;13.50;99.90;;;;;;4988320;28;19932;-83
2022/06/19 06:48:54;;;;;;;;;;;13.60;99.80;;;;;;4973355;28;20454;-83
2022/06/19 06:51:26;;;;;;;;;;;13.60;99.70;;;;;;5003253;28;20481;-84
2022/06/19 06:53:54;;;;;;;;;;;13.60;99.40;;;;;;4988689;28;19927;-84
2022/06/19 06:56:24;;;;;;;;;;;13.70;99.60;;;;;;4970645;28;20773;-83
2022/06/19 06:58:53;;;;;;;;;;;13.70;99.20;;;;;;4962635;28;19937;-84
2022/06/19 07:01:29;;;;;;;;;;;14.50;99.60;;;;;;4986699;28;19940;-84
2022/06/19 07:03:59;;;;;;;;;;;14.50;99.60;;;;;;4950017;28;19930;-83
2022/06/19 07:06:28;;;;;;;;;;;13.80;99.30;;;;;;4966398;28;19937;-84
2022/06/19 07:08:57;;;;;;;;;;;13.80;99.30;;;;;;4966956;28;20399;-84
2022/06/19 07:11:29;;;;;;;;;;;13.90;99.20;;;;;;5003368;28;19937;-82
2022/06/19 07:13:57;;;;;;;;;;;13.90;99.10;;;;;;4967684;28;19926;-84
2022/06/19 07:16:27;;;;;;;;;;;13.90;99.30;;;;;;4967798;28;19941;-84
2022/06/19 07:18:57;;;;;;;;;;;14.00;98.80;;;;;;5005231;28;19930;-83
2022/06/19 07:21:26;;;;;;;;;;;14.00;98.50;;;;;;4972325;28;19927;-83
2022/06/19 07:23:55;;;;;;;;;;;14.60;98.60;;;;;;4968499;28;19926;-83
2022/06/19 07:26:24;;;;;;;;;;;14.30;99.00;;;;;;5000013;28;19927;-82
2022/06/19 07:28:53;;;;;;;;;;;14.40;99.20;;;;;;4966899;28;19937;-82
2022/06/19 07:31:29;;;;;;;;;;;14.40;98.00;;;;;;4968604;28;19927;-84
2022/06/19 07:33:57;;;;;;;;;;;14.50;97.80;;;;;;4960070;28;19931;-83
2022/06/19 07:36:32;;;;;;;;;;;14.50;98.90;;;;;;4968995;28;19933;-85
2022/06/19 07:39:03;;;;;;;;;;;15.00;98.00;;;;;;4982917;28;19940;-83
2022/06/19 07:41:33;;;;;;;;;;;13.30;97.40;;;;;;4981051;28;19947;-84
2022/06/19 07:44:03;;;;;;;;;;;14.70;97.50;;;;;;4985343;28;20566;-84
2022/06/19 07:46:32;;;;;;;;;;;14.80;97.40;;;;;;4968555;28;19936;-84
2022/06/19 07:51:50;;;;;;;;;;;14.30;96.60;;;;;;4971066;28;19931;-83
2022/06/19 07:54:18;;;;;;;;;;;14.70;97.00;;;;;;4961826;28;19926;-84
2022/06/19 07:56:52;;;;;;;;;;;14.80;97.30;;;;;;4962958;28;19935;-84
2022/06/19 07:59:25;;;;;;;;;;;14.80;96.20;;;;;;4970831;28;19927;-82
2022/06/19 08:01:59;;;;;;;;;;;14.90;96.40;;;;;;4967494;28;19934;-86
2022/06/19 08:04:36;;;;;;;;;;;15.10;96.40;;;;;;4976444;28;19940;-83
2022/06/19 08:07:13;;;;;;;;;;;15.10;95.90;;;;;;4968462;28;19911;-85
2022/06/19 08:09:48;;;;;;;;;;;15.60;96.30;;;;;;4970993;29;19936;-83
2022/06/19 08:12:20;;;;;;;;;;;13.90;95.50;;;;;;4956127;29;19927;-84
2022/06/19 08:15:07;;;;;;;;;;;15.50;95.20;;;;;;4967460;28;19941;-84
2022/06/19 08:18:03;;;;;;;;;;;15.70;94.60;;;;;;5000086;28;19933;-83
2022/06/19 08:20:52;;;;;;;;;;;15.80;95.00;;;;;;4965399;28;20006;-83
2022/06/19 08:23:21;;;;;;;;;;;14.60;94.40;;;;;;4997914;28;19930;-83
2022/06/19 08:25:52;;;;;;;;;;;16.00;93.60;;;;;;4970533;28;19956;-85
2022/06/19 08:28:42;;;;;;;;;;;16.10;93.20;;;;;;4969225;29;19941;-84
2022/06/19 08:31:17;;;;;;;;;;;16.20;93.00;;;;;;4969101;28;19935;-82
2022/06/19 08:33:48;;;;;;;;;;;16.20;93.40;;;;;;4995998;28;19926;-81
2022/06/19 08:36:16;;;;;;;;;;;16.20;93.30;;;;;;4952269;28;19934;-82
2022/06/19 08:38:47;;;;;;;;;;;16.20;92.80;;;;;;4963180;28;19926;-82
2022/06/19 08:41:26;;;;;;;;;;;16.20;92.10;;;;;;4965466;28;19937;-82
2022/06/19 08:44:13;;;;;;;;;;;16.50;92.20;;;;;;4968239;29;19933;-82
2022/06/19 08:46:43;;;;;;;;;;;16.30;92.10;;;;;;4964427;28;19930;-81
2022/06/19 08:49:42;;;;;;;;;;;16.20;92.10;;;;;;4968081;28;20019;-80
2022/06/19 08:52:42;;;;;;;;;;;16.10;91.60;;;;;;4967981;28;19950;-82
2022/06/19 08:55:28;;;;;;;;;;;16.30;91.70;;;;;;4960895;28;19926;-82
2022/06/19 08:57:57;;;;;;;;;;;16.40;91.20;;;;;;4995228;28;20398;-82
2022/06/19 09:00:33;;;;;;;;;;;16.30;91.10;;;;;;4994287;28;19942;-82
2022/06/19 09:06:34;;;;;;;;;;;16.60;90.20;;;;;;4961843;28;19938;-81
2022/06/19 09:09:12;;;;;;;;;;;16.90;88.00;;;;;;4963984;28;19926;-81
2022/06/19 09:11:56;;;;;;;;;;;17.60;88.00;;;;;;4964582;28;19926;-79
2022/06/19 09:14:30;;;;;;;;;;;17.20;88.20;;;;;;4965995;28;19927;-83
2022/06/19 09:17:11;;;;;;;;;;;17.30;86.30;;;;;;4963820;28;19930;-82
2022/06/19 09:19:48;;;;;;;;;;;17.80;86.30;;;;;;4964129;28;19934;-82
2022/06/19 09:22:27;;;;;;;;;;;17.60;86.60;;;;;;4962747;28;19935;-81
2022/06/19 09:24:58;;;;;;;;;;;17.60;84.60;;;;;;4992277;28;19931;-81
2022/06/19 09:27:46;;;;;;;;;;;17.70;85.00;;;;;;4974536;28;19937;-82
2022/06/19 09:30:23;;;;;;;;;;;17.70;85.10;;;;;;4990861;28;19934;-81
2022/06/19 09:32:59;;;;;;;;;;;17.80;85.00;;;;;;4961315;28;19934;-80
2022/06/19 09:35:41;;;;;;;;;;;17.80;82.60;;;;;;4963392;29;19945;-80
2022/06/19 09:38:37;;;;;;;;;;;18.00;84.50;;;;;;4980153;28;20377;-81
2022/06/19 09:41:11;;;;;;;;;;;18.00;82.00;;;;;;4963615;28;19927;-80
2022/06/19 09:43:53;;;;;;;;;;;18.30;82.80;;;;;;4978135;28;19931;-82
2022/06/19 09:46:39;;;;;;;;;;;19.20;83.30;;;;;;4965448;28;19930;-81
2022/06/19 09:49:08;;;;;;;;;;;18.20;82.30;;;;;;4964461;28;19933;-80
2022/06/19 09:51:47;;;;;;;;;;;18.50;83.80;;;;;;4978787;28;19934;-81
2022/06/19 09:54:25;;;;;;;;;;;18.50;81.00;;;;;;4993532;28;20232;-81
2022/06/19 09:56:56;;;;;;;;;;;18.60;82.20;;;;;;4978173;28;19926;-81
2022/06/19 09:59:41;;;;;;;;;;;18.70;81.40;;;;;;4977584;28;19931;-81
2022/06/19 10:02:18;;;;;;;;;;;19.00;80.60;;;;;;4993862;28;19934;-82
2022/06/19 10:04:54;;;;;;;;;;;17.50;79.80;;;;;;4979009;28;19927;-81
2022/06/19 10:07:27;;;;;;;;;;;19.20;79.50;;;;;;4961836;28;20021;-80
2022/06/19 10:10:01;;;;;;;;;;;19.30;80.00;;;;;;4977922;28;19926;-79
2022/06/19 10:12:38;;;;;;;;;;;19.30;79.70;;;;;;4963204;28;19942;-80
2022/06/19 10:15:18;;;;;;;;;;;19.40;80.50;;;;;;4961696;28;19935;-81
2022/06/19 10:18:00;;;;;;;;;;;19.30;78.40;;;;;;4977765;28;19931;-80
2022/06/19 10:20:53;;;;;;;;;;;19.20;78.60;;;;;;4995354;28;19949;-80
2022/06/19 10:23:50;;;;;;;;;;;19.20;78.10;;;;;;4991966;28;19930;-82
2022/06/19 10:26:39;;;;;;;;;;;17.70;78.10;;;;;;4973512;28;19934;-80
2022/06/19 10:29:30;;;;;;;;;;;19.10;79.40;;;;;;4962500;29;19942;-80
2022/06/19 10:32:07;;;;;;;;;;;20.40;79.00;;;;;;4990145;28;19930;-80
2022/06/19 10:34:53;;;;;;;;;;;19.20;78.40;;;;;;4960797;28;19927;-81
2022/06/19 10:37:44;;;;;;;;;;;19.10;78.60;;;;;;4958380;28;19946;-81
2022/06/19 10:40:18;;;;;;;;;;;19.40;78.80;;;;;;4978027;28;19930;-80
2022/06/19 10:42:54;;;;;;;;;;;19.50;79.00;;;;;;4981006;28;19930;-81
2022/06/19 10:45:22;;;;;;;;;;;19.40;79.30;;;;;;4966400;28;20262;-80
2022/06/19 10:47:58;;;;;;;;;;;19.40;79.60;;;;;;4978471;28;19927;-81
2022/06/19 10:50:43;;;;;;;;;;;19.10;77.20;;;;;;4965706;28;19926;-81
2022/06/19 10:53:34;;;;;;;;;;;19.60;78.10;;;;;;4979892;28;19930;-82
2022/06/19 10:56:33;;;;;;;;;;;19.60;77.20;;;;;;4976843;28;19927;-79
2022/06/19 10:59:01;;;;;;;;;;;19.60;77.50;;;;;;4978016;28;19926;-81
2022/06/19 11:04:34;;;;;;;;;;;20.00;77.30;;;;;;4961594;28;19940;-81
2022/06/19 11:07:09;;;;;;;;;;;19.80;76.50;;;;;;4962688;28;20408;-80
2022/06/19 11:09:48;;;;;;;;;;;19.90;77.40;;;;;;4960705;28;19935;-80
2022/06/19 11:12:39;;;;;;;;;;;20.00;76.90;;;;;;4964343;28;19931;-80
2022/06/19 11:15:29;;;;;;;;;;;20.00;75.60;;;;;;5044782;23;19929;-89
2022/06/19 11:18:27;;;;;;;;;;;20.30;75.90;;;;;;5028172;28;19929;-90
2022/06/19 11:21:20;;;;;;;;;;;20.10;76.90;;;;;;5016070;28;19940;-90
2022/06/19 11:24:28;;;;;;;;;;;20.20;76.50;;;;;;5017801;28;19924;-91
2022/06/19 11:27:26;;;;;;;;;;;20.00;74.10;;;;;;5022746;28;19929;-91
2022/06/19 11:30:36;;;;;;;;;;;20.30;74.50;;;;;;5015929;28;19926;-92
2022/06/19 11:37:18;;;;;;;;;;;20.10;74.50;;;;;;5030072;28;20935;-91
2022/06/19 11:40:14;;;;;;;;;;;20.00;74.50;;;;;;4997936;28;19914;-91
2022/06/19 11:42:50;;;;;;;;;;;20.00;73.80;;;;;;5028140;28;19922;-90
2022/06/19 11:45:37;;;;;;;;;;;19.90;74.80;;;;;;5026409;28;19910;-91
2022/06/19 11:48:14;;;;;;;;;;;19.70;74.50;;;;;;5027348;28;19936;-91
2022/06/19 11:51:01;;;;;;;;;;;19.60;74.90;;;;;;5024119;28;19932;-91
2022/06/19 11:53:49;;;;;;;;;;;19.60;74.90;;;;;;4999782;28;19929;-91
2022/06/19 11:56:35;;;;;;;;;;;19.50;75.70;;;;;;5026772;28;19929;-91
2022/06/19 11:59:44;;;;;;;;;;;19.40;75.60;;;;;;5013679;28;19934;-91
2022/06/19 12:02:39;;;;;;;;;;;19.40;75.80;;;;;;5058613;22;20174;-90
2022/06/19 12:05:27;;;;;;;;;;;19.60;76.00;;;;;;5036470;28;19929;-90
2022/06/19 12:08:27;;;;;;;;;;;19.50;75.40;;;;;;5055582;28;19925;-91
2022/06/19 12:15:34;;;;;;;;;;;19.60;75.10;;;;;;5066535;28;19913;-90
2022/06/19 12:18:20;;;;;;;;;;;19.60;76.00;;;;;;5043498;23;19929;-80
2022/06/19 12:20:59;;;;;;;;;;;19.60;74.90;;;;;;5034642;28;19926;-82
2022/06/19 12:23:31;;;;;;;;;;;19.70;75.30;;;;;;5005385;28;19940;-80
2022/06/19 12:26:04;;;;;;;;;;;19.80;75.40;;;;;;5022174;28;19929;-81
2022/06/19 12:28:41;;;;;;;;;;;20.00;75.80;;;;;;5005936;28;19929;-81
2022/06/19 12:31:12;;;;;;;;;;;20.50;75.90;;;;;;5038570;28;20402;-80
2022/06/19 12:33:46;;;;;;;;;;;20.20;73.90;;;;;;5004690;28;19934;-80
2022/06/19 12:36:16;;;;;;;;;;;20.20;75.00;;;;;;5008499;28;20073;-80
2022/06/19 12:38:48;;;;;;;;;;;20.40;74.70;;;;;;4990106;28;19934;-80
2022/06/19 12:41:17;;;;;;;;;;;20.50;75.10;;;;;;5022238;28;19929;-81
2022/06/19 12:43:46;;;;;;;;;;;20.60;74.80;;;;;;5003204;28;19933;-80
2022/06/19 12:46:34;;;;;;;;;;;20.60;73.90;;;;;;5009516;28;19940;-81
2022/06/19 12:49:03;;;;;;;;;;;20.60;73.50;;;;;;5002825;28;19932;-82
2022/06/19 12:51:31;;;;;;;;;;;20.60;74.30;;;;;;5029723;28;19929;-82
2022/06/19 12:54:00;;;;;;;;;;;20.60;73.60;;;;;;5014485;28;19930;-80
2022/06/19 12:56:42;;;;;;;;;;;20.50;73.70;;;;;;4988365;28;19936;-82
2022/06/19 12:59:16;;;;;;;;;;;20.40;74.00;;;;;;5017156;28;19941;-79
2022/06/19 13:01:45;;;;;;;;;;;20.40;74.80;;;;;;4997927;28;19937;-81
2022/06/19 13:04:32;;;;;;;;;;;20.40;74.60;;;;;;5000774;28;19933;-80
2022/06/19 13:06:59;;;;;;;;;;;20.30;74.10;;;;;;5015689;28;19926;-81
2022/06/19 13:09:47;;;;;;;;;;;20.20;73.90;;;;;;5018905;28;19933;-80
2022/06/19 13:12:22;;;;;;;;;;;20.10;74.30;;;;;;5037907;28;19940;-80
2022/06/19 13:15:05;;;;;;;;;;;20.00;75.00;;;;;;5020074;28;19929;-80
2022/06/19 13:17:52;;;;;;;;;;;20.10;74.10;;;;;;5041216;28;19952;-82
2022/06/19 13:20:28;;;;;;;;;;;20.00;74.90;;;;;;5007710;28;19925;-81
2022/06/19 13:23:14;;;;;;;;;;;20.10;74.40;;;;;;5016971;28;19932;-81
2022/06/19 13:26:01;;;;;;;;;;;20.40;75.00;;;;;;5001912;28;19933;-80
2022/06/19 13:28:32;;;;;;;;;;;20.60;74.80;;;;;;5020956;28;20436;-80
2022/06/19 13:31:06;;;;;;;;;;;21.00;74.40;;;;;;5003355;28;19930;-81
2022/06/19 13:33:37;;;;;;;;;;;21.20;73.60;;;;;;5005877;28;19933;-82
2022/06/19 13:36:14;;;;;;;;;;;21.40;73.50;;;;;;5005789;28;19940;-82
2022/06/19 13:38:45;;;;;;;;;;;21.80;73.60;;;;;;5006355;28;19944;-80
2022/06/19 13:41:12;;;;;;;;;;;21.80;72.80;;;;;;5026349;28;19940;-81
2022/06/19 13:43:49;;;;;;;;;;;23.10;73.40;;;;;;5021039;28;20273;-81
2022/06/19 13:46:25;;;;;;;;;;;22.10;72.10;;;;;;5019202;28;19928;-81
2022/06/19 13:49:13;;;;;;;;;;;22.70;72.10;;;;;;5006642;28;19936;-81
2022/06/19 13:51:59;;;;;;;;;;;23.10;71.40;;;;;;5039277;28;19929;-80
2022/06/19 13:54:42;;;;;;;;;;;23.50;70.50;;;;;;5004756;28;19943;-81
2022/06/19 13:57:19;;;;;;;;;;;23.50;69.50;;;;;;5033622;28;19937;-82
2022/06/19 14:00:03;;;;;;;;;;;23.30;69.80;;;;;;5003028;28;19929;-81
2022/06/19 14:02:32;;;;;;;;;;;23.00;70.50;;;;;;5015644;28;19930;-81
2022/06/19 14:05:12;;;;;;;;;;;22.70;70.80;;;;;;5015309;28;20018;-80
2022/06/19 14:07:51;;;;;;;;;;;22.30;70.00;;;;;;4998900;28;19945;-80
2022/06/19 14:10:25;;;;;;;;;;;22.00;70.50;;;;;;5028907;28;19940;-81
2022/06/19 14:13:17;;;;;;;;;;;21.80;71.30;;;;;;5016338;28;19936;-81
2022/06/19 14:16:03;;;;;;;;;;;21.60;71.90;;;;;;4999963;28;19932;-81
2022/06/19 14:18:48;;;;;;;;;;;21.50;71.50;;;;;;5031878;28;19933;-81
2022/06/19 14:21:39;;;;;;;;;;;21.40;72.20;;;;;;5043934;28;19933;-80
2022/06/19 14:24:23;;;;;;;;;;;21.40;71.60;;;;;;5010271;28;19936;-81
2022/06/19 14:27:14;;;;;;;;;;;21.40;72.40;;;;;;5028809;28;20003;-81
2022/06/19 14:29:47;;;;;;;;;;;21.30;72.50;;;;;;5046377;28;19930;-81
2022/06/19 14:32:21;;;;;;;;;;;21.10;72.70;;;;;;5011608;28;19924;-80
2022/06/19 14:35:03;;;;;;;;;;;21.00;72.80;;;;;;5008413;28;19926;-81
2022/06/19 14:37:42;;;;;;;;;;;21.20;73.30;;;;;;5039035;28;19933;-79
2022/06/19 14:40:23;;;;;;;;;;;20.90;73.60;;;;;;5008866;28;19929;-82
2022/06/19 14:42:50;;;;;;;;;;;21.00;73.50;;;;;;5032437;28;20152;-82
2022/06/19 14:45:20;;;;;;;;;;;21.10;73.40;;;;;;5002571;28;19932;-81
2022/06/19 14:47:47;;;;;;;;;;;21.10;72.90;;;;;;5023841;28;19933;-81
2022/06/19 14:50:22;;;;;;;;;;;21.20;74.00;;;;;;5022489;28;19956;-82
2022/06/19 14:52:56;;;;;;;;;;;21.30;73.20;;;;;;5038984;28;19929;-82
2022/06/19 14:55:29;;;;;;;;;;;22.40;73.90;;;;;;5043247;28;20352;-81
2022/06/19 14:57:58;;;;;;;;;;;21.50;72.70;;;;;;5030824;28;19929;-81
2022/06/19 15:00:29;;;;;;;;;;;21.60;72.30;;;;;;5047977;28;19939;-83
2022/06/19 15:03:03;;;;;;;;;;;21.70;72.40;;;;;;5041305;28;19929;-82
2022/06/19 15:05:35;;;;;;;;;;;22.00;71.20;;;;;;5027280;28;19933;-80
2022/06/19 15:08:16;;;;;;;;;;;22.10;71.70;;;;;;5049906;28;19925;-81
2022/06/19 15:10:56;;;;;;;;;;;22.10;70.80;;;;;;5030106;28;19935;-82
2022/06/19 15:13:29;;;;;;;;;;;21.90;70.80;;;;;;5043933;28;19936;-81
2022/06/19 15:16:15;;;;;;;;;;;21.10;70.60;;;;;;5042283;28;19933;-82
2022/06/19 15:19:07;;;;;;;;;;;21.60;71.90;;;;;;5025804;28;19949;-80
2022/06/19 15:21:36;;;;;;;;;;;21.40;72.20;;;;;;5028729;28;19925;-81